sensor_id;sensor_type;location;lat;lon;timestamp;P1;durP1;ratioP1;P2;durP2;ratioP2
53907;SDS011;40469;47.998;7.794;2023-04-06T00:00:53;8.38;;;3.40;;
53907;SDS011;40469;47.998;7.794;2023-04-06T00:03:18;6.07;;;3.63;;
53907;SDS011;40469;47.998;7.794;2023-04-06T00:05:44;8.13;;;3.60;;
53907;SDS011;40469;47.998;7.794;2023-04-06T00:08:10;7.63;;;3.65;;
53907;SDS011;40469;47.998;7.794;2023-04-06T00:10:36;5.57;;;4.03;;
53907;SDS011;40469;47.998;7.794;2023-04-06T00:13:01;8.32;;;3.78;;
53907;SDS011;40469;47.998;7.794;2023-04-06T00:15:27;5.38;;;3.42;;
53907;SDS011;40469;47.998;7.794;2023-04-06T00:17:52;5.20;;;3.88;;
53907;SDS011;40469;47.998;7.794;2023-04-06T00:20:18;5.13;;;3.50;;
53907;SDS011;40469;47.998;7.794;2023-04-06T00:22:43;5.55;;;3.85;;
53907;SDS011;40469;47.998;7.794;2023-04-06T00:25:09;6.50;;;3.15;;
53907;SDS011;40469;47.998;7.794;2023-04-06T00:27:36;7.32;;;3.55;;
53907;SDS011;40469;47.998;7.794;2023-04-06T00:30:02;6.22;;;4.10;;
53907;SDS011;40469;47.998;7.794;2023-04-06T00:32:31;6.70;;;3.83;;
53907;SDS011;40469;47.998;7.794;2023-04-06T00:34:58;4.82;;;3.03;;
53907;SDS011;40469;47.998;7.794;2023-04-06T00:37:23;6.43;;;4.13;;
53907;SDS011;40469;47.998;7.794;2023-04-06T00:39:49;5.30;;;3.53;;
53907;SDS011;40469;47.998;7.794;2023-04-06T00:42:16;5.75;;;2.95;;
53907;SDS011;40469;47.998;7.794;2023-04-06T00:44:43;5.97;;;3.40;;
53907;SDS011;40469;47.998;7.794;2023-04-06T00:47:08;4.97;;;2.95;;
53907;SDS011;40469;47.998;7.794;2023-04-06T00:49:34;4.95;;;3.40;;
53907;SDS011;40469;47.998;7.794;2023-04-06T00:52:00;5.32;;;3.50;;
53907;SDS011;40469;47.998;7.794;2023-04-06T00:54:26;5.55;;;3.33;;
53907;SDS011;40469;47.998;7.794;2023-04-06T00:56:52;8.85;;;3.78;;
53907;SDS011;40469;47.998;7.794;2023-04-06T00:59:18;5.90;;;3.50;;
53907;SDS011;40469;47.998;7.794;2023-04-06T01:01:43;5.72;;;3.58;;
53907;SDS011;40469;47.998;7.794;2023-04-06T01:04:09;5.45;;;3.05;;
53907;SDS011;40469;47.998;7.794;2023-04-06T01:06:35;5.93;;;3.78;;
53907;SDS011;40469;47.998;7.794;2023-04-06T01:09:00;6.88;;;3.72;;
53907;SDS011;40469;47.998;7.794;2023-04-06T01:11:25;4.78;;;3.47;;
53907;SDS011;40469;47.998;7.794;2023-04-06T01:13:51;6.00;;;3.67;;
53907;SDS011;40469;47.998;7.794;2023-04-06T01:16:17;5.45;;;3.10;;
53907;SDS011;40469;47.998;7.794;2023-04-06T01:18:42;5.13;;;3.28;;
53907;SDS011;40469;47.998;7.794;2023-04-06T01:21:08;5.43;;;3.20;;
53907;SDS011;40469;47.998;7.794;2023-04-06T01:23:40;5.97;;;3.58;;
53907;SDS011;40469;47.998;7.794;2023-04-06T01:26:05;6.28;;;2.95;;
53907;SDS011;40469;47.998;7.794;2023-04-06T01:28:31;6.32;;;3.40;;
53907;SDS011;40469;47.998;7.794;2023-04-06T01:30:56;5.00;;;3.22;;
53907;SDS011;40469;47.998;7.794;2023-04-06T01:33:21;4.53;;;3.20;;
53907;SDS011;40469;47.998;7.794;2023-04-06T01:35:47;7.15;;;3.92;;
53907;SDS011;40469;47.998;7.794;2023-04-06T01:38:12;5.80;;;3.28;;
53907;SDS011;40469;47.998;7.794;2023-04-06T01:40:38;6.35;;;3.25;;
53907;SDS011;40469;47.998;7.794;2023-04-06T01:43:03;5.78;;;3.45;;
53907;SDS011;40469;47.998;7.794;2023-04-06T01:45:28;4.65;;;3.40;;
53907;SDS011;40469;47.998;7.794;2023-04-06T01:47:54;5.95;;;3.47;;
53907;SDS011;40469;47.998;7.794;2023-04-06T01:50:19;6.35;;;3.60;;
53907;SDS011;40469;47.998;7.794;2023-04-06T01:52:45;4.78;;;3.00;;
53907;SDS011;40469;47.998;7.794;2023-04-06T01:55:10;5.70;;;3.30;;
53907;SDS011;40469;47.998;7.794;2023-04-06T01:57:36;7.75;;;3.13;;
53907;SDS011;40469;47.998;7.794;2023-04-06T02:00:01;5.95;;;3.30;;
53907;SDS011;40469;47.998;7.794;2023-04-06T02:02:27;8.48;;;3.65;;
53907;SDS011;40469;47.998;7.794;2023-04-06T02:04:52;5.70;;;3.15;;
53907;SDS011;40469;47.998;7.794;2023-04-06T02:07:18;5.53;;;2.90;;
53907;SDS011;40469;47.998;7.794;2023-04-06T02:09:43;5.75;;;3.17;;
53907;SDS011;40469;47.998;7.794;2023-04-06T02:12:08;4.55;;;3.10;;
53907;SDS011;40469;47.998;7.794;2023-04-06T02:14:34;5.05;;;3.60;;
53907;SDS011;40469;47.998;7.794;2023-04-06T02:16:59;5.90;;;3.45;;
53907;SDS011;40469;47.998;7.794;2023-04-06T02:19:25;5.07;;;3.28;;
53907;SDS011;40469;47.998;7.794;2023-04-06T02:21:51;5.75;;;3.33;;
53907;SDS011;40469;47.998;7.794;2023-04-06T02:24:16;4.25;;;3.20;;
53907;SDS011;40469;47.998;7.794;2023-04-06T02:26:41;5.43;;;3.65;;
53907;SDS011;40469;47.998;7.794;2023-04-06T02:29:07;6.88;;;3.42;;
53907;SDS011;40469;47.998;7.794;2023-04-06T02:31:32;4.10;;;3.13;;
53907;SDS011;40469;47.998;7.794;2023-04-06T02:33:57;6.57;;;3.20;;
53907;SDS011;40469;47.998;7.794;2023-04-06T02:36:23;6.43;;;3.08;;
53907;SDS011;40469;47.998;7.794;2023-04-06T02:38:48;6.43;;;3.72;;
53907;SDS011;40469;47.998;7.794;2023-04-06T02:41:13;5.90;;;3.67;;
53907;SDS011;40469;47.998;7.794;2023-04-06T02:43:39;5.22;;;3.28;;
53907;SDS011;40469;47.998;7.794;2023-04-06T02:46:05;6.45;;;3.50;;
53907;SDS011;40469;47.998;7.794;2023-04-06T02:48:30;5.70;;;3.38;;
53907;SDS011;40469;47.998;7.794;2023-04-06T02:50:55;5.43;;;3.50;;
53907;SDS011;40469;47.998;7.794;2023-04-06T02:53:21;6.18;;;3.70;;
53907;SDS011;40469;47.998;7.794;2023-04-06T02:55:46;6.95;;;3.53;;
53907;SDS011;40469;47.998;7.794;2023-04-06T02:58:11;6.72;;;3.88;;
53907;SDS011;40469;47.998;7.794;2023-04-06T03:00:37;8.57;;;4.03;;
53907;SDS011;40469;47.998;7.794;2023-04-06T03:03:02;5.43;;;3.30;;
53907;SDS011;40469;47.998;7.794;2023-04-06T03:05:28;4.97;;;3.58;;
53907;SDS011;40469;47.998;7.794;2023-04-06T03:07:53;6.32;;;3.50;;
53907;SDS011;40469;47.998;7.794;2023-04-06T03:10:18;4.72;;;3.10;;
53907;SDS011;40469;47.998;7.794;2023-04-06T03:12:44;7.90;;;3.25;;
53907;SDS011;40469;47.998;7.794;2023-04-06T03:15:09;6.15;;;3.55;;
53907;SDS011;40469;47.998;7.794;2023-04-06T03:17:36;5.25;;;3.10;;
53907;SDS011;40469;47.998;7.794;2023-04-06T03:20:01;8.27;;;3.72;;
53907;SDS011;40469;47.998;7.794;2023-04-06T03:22:28;6.05;;;3.50;;
53907;SDS011;40469;47.998;7.794;2023-04-06T03:24:53;5.70;;;3.60;;
53907;SDS011;40469;47.998;7.794;2023-04-06T03:27:19;8.07;;;3.75;;
53907;SDS011;40469;47.998;7.794;2023-04-06T03:29:44;6.93;;;3.85;;
53907;SDS011;40469;47.998;7.794;2023-04-06T03:32:10;6.15;;;3.42;;
53907;SDS011;40469;47.998;7.794;2023-04-06T03:34:36;6.97;;;3.40;;
53907;SDS011;40469;47.998;7.794;2023-04-06T03:37:01;10.77;;;4.00;;
53907;SDS011;40469;47.998;7.794;2023-04-06T03:39:27;6.60;;;4.38;;
53907;SDS011;40469;47.998;7.794;2023-04-06T03:41:52;8.98;;;4.00;;
53907;SDS011;40469;47.998;7.794;2023-04-06T03:44:17;5.13;;;3.25;;
53907;SDS011;40469;47.998;7.794;2023-04-06T03:46:43;6.68;;;3.17;;
53907;SDS011;40469;47.998;7.794;2023-04-06T03:49:08;8.07;;;3.25;;
53907;SDS011;40469;47.998;7.794;2023-04-06T03:51:34;6.85;;;3.95;;
53907;SDS011;40469;47.998;7.794;2023-04-06T03:53:59;6.88;;;3.42;;
53907;SDS011;40469;47.998;7.794;2023-04-06T03:56:25;4.00;;;2.85;;
53907;SDS011;40469;47.998;7.794;2023-04-06T03:58:51;5.90;;;3.58;;
53907;SDS011;40469;47.998;7.794;2023-04-06T04:01:17;8.63;;;3.47;;
53907;SDS011;40469;47.998;7.794;2023-04-06T04:03:43;5.78;;;3.10;;
53907;SDS011;40469;47.998;7.794;2023-04-06T04:06:08;7.03;;;3.40;;
53907;SDS011;40469;47.998;7.794;2023-04-06T04:08:34;7.32;;;3.40;;
53907;SDS011;40469;47.998;7.794;2023-04-06T04:11:00;5.20;;;3.10;;
53907;SDS011;40469;47.998;7.794;2023-04-06T04:13:25;5.47;;;3.13;;
53907;SDS011;40469;47.998;7.794;2023-04-06T04:15:51;5.30;;;3.63;;
53907;SDS011;40469;47.998;7.794;2023-04-06T04:18:16;5.72;;;3.03;;
53907;SDS011;40469;47.998;7.794;2023-04-06T04:20:42;4.82;;;3.40;;
53907;SDS011;40469;47.998;7.794;2023-04-06T04:23:07;6.53;;;3.45;;
53907;SDS011;40469;47.998;7.794;2023-04-06T04:25:32;5.65;;;3.28;;
53907;SDS011;40469;47.998;7.794;2023-04-06T04:27:58;7.45;;;3.60;;
53907;SDS011;40469;47.998;7.794;2023-04-06T04:30:23;5.60;;;3.70;;
53907;SDS011;40469;47.998;7.794;2023-04-06T04:32:48;6.93;;;3.25;;
53907;SDS011;40469;47.998;7.794;2023-04-06T04:35:14;5.60;;;3.30;;
53907;SDS011;40469;47.998;7.794;2023-04-06T04:37:40;6.10;;;3.88;;
53907;SDS011;40469;47.998;7.794;2023-04-06T04:40:06;6.00;;;3.47;;
53907;SDS011;40469;47.998;7.794;2023-04-06T04:42:32;6.72;;;3.40;;
53907;SDS011;40469;47.998;7.794;2023-04-06T04:44:57;5.47;;;3.40;;
53907;SDS011;40469;47.998;7.794;2023-04-06T04:47:23;5.63;;;3.75;;
53907;SDS011;40469;47.998;7.794;2023-04-06T04:49:48;4.30;;;3.10;;
53907;SDS011;40469;47.998;7.794;2023-04-06T04:52:13;7.32;;;4.03;;
53907;SDS011;40469;47.998;7.794;2023-04-06T04:54:39;6.78;;;3.35;;
53907;SDS011;40469;47.998;7.794;2023-04-06T04:57:06;4.25;;;3.03;;
53907;SDS011;40469;47.998;7.794;2023-04-06T04:59:31;7.53;;;4.22;;
53907;SDS011;40469;47.998;7.794;2023-04-06T05:01:56;8.45;;;3.78;;
53907;SDS011;40469;47.998;7.794;2023-04-06T05:04:22;5.88;;;3.95;;
53907;SDS011;40469;47.998;7.794;2023-04-06T05:06:48;6.63;;;3.60;;
53907;SDS011;40469;47.998;7.794;2023-04-06T05:09:13;9.10;;;4.07;;
53907;SDS011;40469;47.998;7.794;2023-04-06T05:11:39;6.78;;;3.63;;
53907;SDS011;40469;47.998;7.794;2023-04-06T05:14:04;6.57;;;4.18;;
53907;SDS011;40469;47.998;7.794;2023-04-06T05:16:31;9.10;;;3.80;;
53907;SDS011;40469;47.998;7.794;2023-04-06T05:18:57;8.68;;;4.13;;
53907;SDS011;40469;47.998;7.794;2023-04-06T05:21:23;7.53;;;4.00;;
53907;SDS011;40469;47.998;7.794;2023-04-06T05:23:48;8.75;;;3.90;;
53907;SDS011;40469;47.998;7.794;2023-04-06T05:26:13;8.70;;;4.35;;
53907;SDS011;40469;47.998;7.794;2023-04-06T05:28:39;7.88;;;3.70;;
53907;SDS011;40469;47.998;7.794;2023-04-06T05:31:04;6.20;;;3.92;;
53907;SDS011;40469;47.998;7.794;2023-04-06T05:33:29;6.95;;;3.92;;
53907;SDS011;40469;47.998;7.794;2023-04-06T05:35:55;5.93;;;3.65;;
53907;SDS011;40469;47.998;7.794;2023-04-06T05:38:20;9.05;;;3.90;;
53907;SDS011;40469;47.998;7.794;2023-04-06T05:40:46;6.85;;;4.00;;
53907;SDS011;40469;47.998;7.794;2023-04-06T05:43:12;10.80;;;3.90;;
53907;SDS011;40469;47.998;7.794;2023-04-06T05:45:37;7.32;;;4.30;;
53907;SDS011;40469;47.998;7.794;2023-04-06T05:48:03;10.05;;;4.13;;
53907;SDS011;40469;47.998;7.794;2023-04-06T05:50:28;5.45;;;3.63;;
53907;SDS011;40469;47.998;7.794;2023-04-06T05:52:54;10.05;;;3.95;;
53907;SDS011;40469;47.998;7.794;2023-04-06T05:55:19;6.43;;;4.05;;
53907;SDS011;40469;47.998;7.794;2023-04-06T05:57:45;6.55;;;3.78;;
53907;SDS011;40469;47.998;7.794;2023-04-06T06:00:10;6.30;;;3.78;;
53907;SDS011;40469;47.998;7.794;2023-04-06T06:02:36;8.38;;;3.97;;
53907;SDS011;40469;47.998;7.794;2023-04-06T06:05:02;7.68;;;3.75;;
53907;SDS011;40469;47.998;7.794;2023-04-06T06:07:27;5.68;;;3.45;;
53907;SDS011;40469;47.998;7.794;2023-04-06T06:09:55;7.53;;;3.90;;
53907;SDS011;40469;47.998;7.794;2023-04-06T06:12:22;6.40;;;3.80;;
53907;SDS011;40469;47.998;7.794;2023-04-06T06:14:47;8.05;;;4.53;;
53907;SDS011;40469;47.998;7.794;2023-04-06T06:17:12;6.20;;;3.72;;
53907;SDS011;40469;47.998;7.794;2023-04-06T06:19:40;9.82;;;4.10;;
53907;SDS011;40469;47.998;7.794;2023-04-06T06:22:05;8.05;;;3.67;;
53907;SDS011;40469;47.998;7.794;2023-04-06T06:24:31;11.32;;;3.95;;
53907;SDS011;40469;47.998;7.794;2023-04-06T06:26:56;6.07;;;3.70;;
53907;SDS011;40469;47.998;7.794;2023-04-06T06:29:22;5.68;;;4.15;;
53907;SDS011;40469;47.998;7.794;2023-04-06T06:31:48;10.63;;;3.75;;
53907;SDS011;40469;47.998;7.794;2023-04-06T06:34:14;6.28;;;3.80;;
53907;SDS011;40469;47.998;7.794;2023-04-06T06:36:39;7.35;;;3.95;;
53907;SDS011;40469;47.998;7.794;2023-04-06T06:39:05;7.18;;;3.58;;
53907;SDS011;40469;47.998;7.794;2023-04-06T06:41:30;8.45;;;4.28;;
53907;SDS011;40469;47.998;7.794;2023-04-06T06:43:56;7.47;;;3.95;;
53907;SDS011;40469;47.998;7.794;2023-04-06T06:46:21;5.88;;;3.67;;
53907;SDS011;40469;47.998;7.794;2023-04-06T06:48:46;7.85;;;3.47;;
53907;SDS011;40469;47.998;7.794;2023-04-06T06:51:12;7.75;;;3.80;;
53907;SDS011;40469;47.998;7.794;2023-04-06T06:53:37;6.78;;;3.67;;
53907;SDS011;40469;47.998;7.794;2023-04-06T06:56:03;7.72;;;3.63;;
53907;SDS011;40469;47.998;7.794;2023-04-06T06:58:28;6.28;;;3.67;;
53907;SDS011;40469;47.998;7.794;2023-04-06T07:00:57;6.10;;;3.38;;
53907;SDS011;40469;47.998;7.794;2023-04-06T07:03:23;7.38;;;3.85;;
53907;SDS011;40469;47.998;7.794;2023-04-06T07:05:49;7.60;;;3.55;;
53907;SDS011;40469;47.998;7.794;2023-04-06T07:08:18;8.18;;;4.18;;
53907;SDS011;40469;47.998;7.794;2023-04-06T07:10:47;8.70;;;4.55;;
53907;SDS011;40469;47.998;7.794;2023-04-06T07:13:13;7.55;;;4.28;;
53907;SDS011;40469;47.998;7.794;2023-04-06T07:15:45;6.45;;;3.67;;
53907;SDS011;40469;47.998;7.794;2023-04-06T07:18:11;11.15;;;4.18;;
53907;SDS011;40469;47.998;7.794;2023-04-06T07:20:36;8.77;;;4.65;;
53907;SDS011;40469;47.998;7.794;2023-04-06T07:23:02;8.43;;;3.75;;
53907;SDS011;40469;47.998;7.794;2023-04-06T07:25:27;9.95;;;4.10;;
53907;SDS011;40469;47.998;7.794;2023-04-06T07:27:53;8.82;;;4.72;;
53907;SDS011;40469;47.998;7.794;2023-04-06T07:30:18;9.70;;;4.78;;
53907;SDS011;40469;47.998;7.794;2023-04-06T07:32:44;10.30;;;4.95;;
53907;SDS011;40469;47.998;7.794;2023-04-06T07:35:10;9.73;;;4.95;;
53907;SDS011;40469;47.998;7.794;2023-04-06T07:37:35;10.32;;;4.80;;
53907;SDS011;40469;47.998;7.794;2023-04-06T07:40:01;11.15;;;5.18;;
53907;SDS011;40469;47.998;7.794;2023-04-06T07:42:26;7.90;;;5.10;;
53907;SDS011;40469;47.998;7.794;2023-04-06T07:44:51;11.60;;;5.47;;
53907;SDS011;40469;47.998;7.794;2023-04-06T07:47:17;10.63;;;5.47;;
53907;SDS011;40469;47.998;7.794;2023-04-06T07:49:42;7.75;;;4.35;;
53907;SDS011;40469;47.998;7.794;2023-04-06T07:52:08;12.52;;;5.43;;
53907;SDS011;40469;47.998;7.794;2023-04-06T07:54:33;8.75;;;4.82;;
53907;SDS011;40469;47.998;7.794;2023-04-06T07:56:58;11.07;;;5.53;;
53907;SDS011;40469;47.998;7.794;2023-04-06T07:59:24;10.23;;;4.95;;
53907;SDS011;40469;47.998;7.794;2023-04-06T08:01:49;11.75;;;5.88;;
53907;SDS011;40469;47.998;7.794;2023-04-06T08:04:14;9.85;;;4.95;;
53907;SDS011;40469;47.998;7.794;2023-04-06T08:06:40;10.30;;;5.15;;
53907;SDS011;40469;47.998;7.794;2023-04-06T08:09:06;8.80;;;4.65;;
53907;SDS011;40469;47.998;7.794;2023-04-06T08:11:31;8.73;;;4.50;;
53907;SDS011;40469;47.998;7.794;2023-04-06T08:13:56;9.07;;;4.38;;
53907;SDS011;40469;47.998;7.794;2023-04-06T08:16:22;7.85;;;4.47;;
53907;SDS011;40469;47.998;7.794;2023-04-06T08:18:48;8.93;;;4.00;;
53907;SDS011;40469;47.998;7.794;2023-04-06T08:21:14;8.38;;;4.45;;
53907;SDS011;40469;47.998;7.794;2023-04-06T08:23:39;6.70;;;3.60;;
53907;SDS011;40469;47.998;7.794;2023-04-06T08:26:05;7.65;;;3.78;;
53907;SDS011;40469;47.998;7.794;2023-04-06T08:28:30;9.25;;;3.55;;
53907;SDS011;40469;47.998;7.794;2023-04-06T08:30:56;7.93;;;3.75;;
53907;SDS011;40469;47.998;7.794;2023-04-06T08:33:21;8.90;;;4.30;;
53907;SDS011;40469;47.998;7.794;2023-04-06T08:35:46;5.85;;;3.47;;
53907;SDS011;40469;47.998;7.794;2023-04-06T08:38:12;6.38;;;3.78;;
53907;SDS011;40469;47.998;7.794;2023-04-06T08:40:38;10.05;;;3.78;;
53907;SDS011;40469;47.998;7.794;2023-04-06T08:43:06;7.85;;;3.67;;
53907;SDS011;40469;47.998;7.794;2023-04-06T08:45:34;9.77;;;4.28;;
53907;SDS011;40469;47.998;7.794;2023-04-06T08:48:00;6.43;;;3.60;;
53907;SDS011;40469;47.998;7.794;2023-04-06T08:50:27;9.45;;;4.25;;
53907;SDS011;40469;47.998;7.794;2023-04-06T08:52:55;9.82;;;4.43;;
53907;SDS011;40469;47.998;7.794;2023-04-06T08:55:20;8.80;;;4.22;;
53907;SDS011;40469;47.998;7.794;2023-04-06T08:57:47;7.78;;;3.95;;
53907;SDS011;40469;47.998;7.794;2023-04-06T09:00:14;7.18;;;4.05;;
53907;SDS011;40469;47.998;7.794;2023-04-06T09:02:42;8.40;;;4.20;;
53907;SDS011;40469;47.998;7.794;2023-04-06T09:05:10;6.50;;;4.15;;
53907;SDS011;40469;47.998;7.794;2023-04-06T09:07:36;5.97;;;3.80;;
53907;SDS011;40469;47.998;7.794;2023-04-06T09:10:02;9.55;;;4.32;;
53907;SDS011;40469;47.998;7.794;2023-04-06T09:12:30;6.93;;;4.20;;
53907;SDS011;40469;47.998;7.794;2023-04-06T09:14:57;6.78;;;3.75;;
53907;SDS011;40469;47.998;7.794;2023-04-06T09:17:24;6.82;;;3.53;;
53907;SDS011;40469;47.998;7.794;2023-04-06T09:19:50;8.95;;;4.03;;
53907;SDS011;40469;47.998;7.794;2023-04-06T09:22:17;8.85;;;4.07;;
53907;SDS011;40469;47.998;7.794;2023-04-06T09:24:47;8.82;;;3.95;;
53907;SDS011;40469;47.998;7.794;2023-04-06T09:27:14;5.93;;;3.33;;
53907;SDS011;40469;47.998;7.794;2023-04-06T09:29:40;8.18;;;3.95;;
53907;SDS011;40469;47.998;7.794;2023-04-06T09:32:06;5.65;;;3.30;;
53907;SDS011;40469;47.998;7.794;2023-04-06T09:34:36;7.43;;;3.75;;
53907;SDS011;40469;47.998;7.794;2023-04-06T09:37:17;8.18;;;3.85;;
53907;SDS011;40469;47.998;7.794;2023-04-06T09:39:44;6.25;;;3.95;;
53907;SDS011;40469;47.998;7.794;2023-04-06T09:42:11;8.18;;;3.78;;
53907;SDS011;40469;47.998;7.794;2023-04-06T09:44:48;9.82;;;4.70;;
53907;SDS011;40469;47.998;7.794;2023-04-06T09:47:13;8.05;;;4.07;;
53907;SDS011;40469;47.998;7.794;2023-04-06T09:49:40;8.40;;;4.05;;
53907;SDS011;40469;47.998;7.794;2023-04-06T09:52:06;9.20;;;4.32;;
53907;SDS011;40469;47.998;7.794;2023-04-06T09:54:36;9.70;;;3.72;;
53907;SDS011;40469;47.998;7.794;2023-04-06T10:07:54;13.80;;;4.40;;
53907;SDS011;40469;47.998;7.794;2023-04-06T10:10:22;9.38;;;4.90;;
53907;SDS011;40469;47.998;7.794;2023-04-06T10:12:48;9.05;;;4.22;;
53907;SDS011;40469;47.998;7.794;2023-04-06T10:15:14;7.68;;;4.30;;
53907;SDS011;40469;47.998;7.794;2023-04-06T10:17:40;10.18;;;3.90;;
53907;SDS011;40469;47.998;7.794;2023-04-06T10:20:10;8.90;;;4.47;;
53907;SDS011;40469;47.998;7.794;2023-04-06T10:22:45;13.70;;;4.68;;
53907;SDS011;40469;47.998;7.794;2023-04-06T10:25:17;9.18;;;4.85;;
53907;SDS011;40469;47.998;7.794;2023-04-06T10:27:58;8.90;;;4.13;;
53907;SDS011;40469;47.998;7.794;2023-04-06T10:30:30;9.13;;;4.05;;
53907;SDS011;40469;47.998;7.794;2023-04-06T10:32:57;10.27;;;4.72;;
53907;SDS011;40469;47.998;7.794;2023-04-06T10:35:22;8.13;;;4.65;;
53907;SDS011;40469;47.998;7.794;2023-04-06T10:37:52;6.55;;;3.80;;
53907;SDS011;40469;47.998;7.794;2023-04-06T10:40:27;7.68;;;4.15;;
53907;SDS011;40469;47.998;7.794;2023-04-06T10:42:53;7.63;;;4.13;;
53907;SDS011;40469;47.998;7.794;2023-04-06T10:45:23;10.05;;;4.90;;
53907;SDS011;40469;47.998;7.794;2023-04-06T10:47:53;7.72;;;4.07;;
53907;SDS011;40469;47.998;7.794;2023-04-06T10:50:20;7.28;;;3.67;;
53907;SDS011;40469;47.998;7.794;2023-04-06T10:52:46;13.20;;;5.20;;
53907;SDS011;40469;47.998;7.794;2023-04-06T10:55:13;10.45;;;4.50;;
53907;SDS011;40469;47.998;7.794;2023-04-06T10:57:39;7.03;;;3.75;;
53907;SDS011;40469;47.998;7.794;2023-04-06T11:00:05;10.75;;;3.90;;
53907;SDS011;40469;47.998;7.794;2023-04-06T11:02:32;8.27;;;4.32;;
53907;SDS011;40469;47.998;7.794;2023-04-06T11:04:58;13.93;;;5.18;;
53907;SDS011;40469;47.998;7.794;2023-04-06T11:07:24;6.53;;;3.30;;
53907;SDS011;40469;47.998;7.794;2023-04-06T11:09:51;10.05;;;3.60;;
53907;SDS011;40469;47.998;7.794;2023-04-06T11:12:24;8.63;;;3.85;;
53907;SDS011;40469;47.998;7.794;2023-04-06T11:14:59;8.02;;;3.40;;
53907;SDS011;40469;47.998;7.794;2023-04-06T11:17:29;7.70;;;3.30;;
53907;SDS011;40469;47.998;7.794;2023-04-06T11:19:59;8.02;;;2.95;;
53907;SDS011;40469;47.998;7.794;2023-04-06T11:22:25;6.18;;;2.67;;
53907;SDS011;40469;47.998;7.794;2023-04-06T11:24:51;6.60;;;2.78;;
53907;SDS011;40469;47.998;7.794;2023-04-06T11:27:18;5.95;;;2.90;;
53907;SDS011;40469;47.998;7.794;2023-04-06T11:29:44;4.88;;;2.75;;
53907;SDS011;40469;47.998;7.794;2023-04-06T11:32:22;6.95;;;3.13;;
53907;SDS011;40469;47.998;7.794;2023-04-06T11:37:14;6.55;;;3.53;;
53907;SDS011;40469;47.998;7.794;2023-04-06T11:39:49;7.80;;;3.60;;
53907;SDS011;40469;47.998;7.794;2023-04-06T11:42:26;8.25;;;4.07;;
53907;SDS011;40469;47.998;7.794;2023-04-06T11:44:56;6.72;;;3.25;;
53907;SDS011;40469;47.998;7.794;2023-04-06T11:47:29;8.05;;;3.80;;
53907;SDS011;40469;47.998;7.794;2023-04-06T11:49:56;6.57;;;3.50;;
53907;SDS011;40469;47.998;7.794;2023-04-06T11:52:32;7.60;;;3.42;;
53907;SDS011;40469;47.998;7.794;2023-04-06T11:54:58;7.22;;;3.95;;
53907;SDS011;40469;47.998;7.794;2023-04-06T11:57:24;8.70;;;4.88;;
53907;SDS011;40469;47.998;7.794;2023-04-06T11:59:50;10.27;;;3.13;;
53907;SDS011;40469;47.998;7.794;2023-04-06T12:02:16;6.05;;;3.28;;
53907;SDS011;40469;47.998;7.794;2023-04-06T12:04:42;7.90;;;3.33;;
53907;SDS011;40469;47.998;7.794;2023-04-06T12:07:09;6.10;;;3.75;;
53907;SDS011;40469;47.998;7.794;2023-04-06T12:09:34;6.60;;;3.47;;
53907;SDS011;40469;47.998;7.794;2023-04-06T12:12:01;7.18;;;3.42;;
53907;SDS011;40469;47.998;7.794;2023-04-06T12:14:26;8.30;;;3.40;;
53907;SDS011;40469;47.998;7.794;2023-04-06T12:16:52;7.22;;;3.22;;
53907;SDS011;40469;47.998;7.794;2023-04-06T12:19:17;8.45;;;4.30;;
53907;SDS011;40469;47.998;7.794;2023-04-06T12:21:43;8.43;;;3.75;;
53907;SDS011;40469;47.998;7.794;2023-04-06T12:24:08;7.53;;;3.20;;
53907;SDS011;40469;47.998;7.794;2023-04-06T12:26:34;7.82;;;3.47;;
53907;SDS011;40469;47.998;7.794;2023-04-06T12:29:01;7.15;;;3.83;;
53907;SDS011;40469;47.998;7.794;2023-04-06T12:31:31;6.68;;;3.53;;
53907;SDS011;40469;47.998;7.794;2023-04-06T12:33:58;8.38;;;3.35;;
53907;SDS011;40469;47.998;7.794;2023-04-06T12:36:23;6.88;;;3.70;;
53907;SDS011;40469;47.998;7.794;2023-04-06T12:38:49;7.30;;;3.45;;
53907;SDS011;40469;47.998;7.794;2023-04-06T12:41:18;7.05;;;3.33;;
53907;SDS011;40469;47.998;7.794;2023-04-06T12:43:43;7.35;;;3.05;;
53907;SDS011;40469;47.998;7.794;2023-04-06T12:46:10;8.93;;;3.53;;
53907;SDS011;40469;47.998;7.794;2023-04-06T12:48:36;7.03;;;3.28;;
53907;SDS011;40469;47.998;7.794;2023-04-06T12:51:03;9.10;;;3.90;;
53907;SDS011;40469;47.998;7.794;2023-04-06T12:53:30;6.25;;;3.17;;
53907;SDS011;40469;47.998;7.794;2023-04-06T12:55:57;6.78;;;3.20;;
53907;SDS011;40469;47.998;7.794;2023-04-06T12:58:23;6.10;;;3.03;;
53907;SDS011;40469;47.998;7.794;2023-04-06T13:00:51;9.18;;;3.75;;
53907;SDS011;40469;47.998;7.794;2023-04-06T13:03:17;4.57;;;2.72;;
53907;SDS011;40469;47.998;7.794;2023-04-06T13:05:44;6.72;;;3.17;;
53907;SDS011;40469;47.998;7.794;2023-04-06T13:08:10;7.72;;;3.20;;
53907;SDS011;40469;47.998;7.794;2023-04-06T13:10:36;6.47;;;2.90;;
53907;SDS011;40469;47.998;7.794;2023-04-06T13:13:02;5.88;;;3.20;;
53907;SDS011;40469;47.998;7.794;2023-04-06T13:15:27;8.27;;;3.13;;
53907;SDS011;40469;47.998;7.794;2023-04-06T13:17:53;6.43;;;2.97;;
53907;SDS011;40469;47.998;7.794;2023-04-06T13:20:18;6.28;;;2.97;;
53907;SDS011;40469;47.998;7.794;2023-04-06T13:22:44;9.88;;;3.80;;
53907;SDS011;40469;47.998;7.794;2023-04-06T13:25:09;7.63;;;3.30;;
53907;SDS011;40469;47.998;7.794;2023-04-06T13:27:34;6.32;;;2.67;;
53907;SDS011;40469;47.998;7.794;2023-04-06T13:30:00;8.00;;;2.70;;
53907;SDS011;40469;47.998;7.794;2023-04-06T13:32:27;6.53;;;3.03;;
53907;SDS011;40469;47.998;7.794;2023-04-06T13:34:56;9.45;;;3.10;;
53907;SDS011;40469;47.998;7.794;2023-04-06T13:37:21;6.32;;;3.20;;
53907;SDS011;40469;47.998;7.794;2023-04-06T13:39:47;6.93;;;2.92;;
53907;SDS011;40469;47.998;7.794;2023-04-06T13:42:12;9.68;;;3.13;;
53907;SDS011;40469;47.998;7.794;2023-04-06T13:44:38;6.03;;;2.85;;
53907;SDS011;40469;47.998;7.794;2023-04-06T13:47:03;9.88;;;3.63;;
53907;SDS011;40469;47.998;7.794;2023-04-06T13:49:28;8.52;;;2.72;;
53907;SDS011;40469;47.998;7.794;2023-04-06T13:51:55;6.90;;;3.13;;
53907;SDS011;40469;47.998;7.794;2023-04-06T13:54:20;6.63;;;2.65;;
53907;SDS011;40469;47.998;7.794;2023-04-06T13:56:46;6.53;;;3.17;;
53907;SDS011;40469;47.998;7.794;2023-04-06T13:59:11;6.13;;;2.97;;
53907;SDS011;40469;47.998;7.794;2023-04-06T14:01:36;5.90;;;3.10;;
53907;SDS011;40469;47.998;7.794;2023-04-06T14:04:02;6.10;;;2.85;;
53907;SDS011;40469;47.998;7.794;2023-04-06T14:06:27;8.73;;;2.60;;
53907;SDS011;40469;47.998;7.794;2023-04-06T14:08:53;6.50;;;3.05;;
53907;SDS011;40469;47.998;7.794;2023-04-06T14:11:18;6.65;;;3.17;;
53907;SDS011;40469;47.998;7.794;2023-04-06T14:13:43;6.55;;;3.15;;
53907;SDS011;40469;47.998;7.794;2023-04-06T14:16:09;10.13;;;3.60;;
53907;SDS011;40469;47.998;7.794;2023-04-06T14:18:35;6.53;;;2.95;;
53907;SDS011;40469;47.998;7.794;2023-04-06T14:21:01;6.80;;;3.13;;
53907;SDS011;40469;47.998;7.794;2023-04-06T14:23:27;6.10;;;3.28;;
53907;SDS011;40469;47.998;7.794;2023-04-06T14:26:08;9.43;;;3.50;;
53907;SDS011;40469;47.998;7.794;2023-04-06T14:28:34;6.85;;;2.95;;
53907;SDS011;40469;47.998;7.794;2023-04-06T14:31:01;8.15;;;3.25;;
53907;SDS011;40469;47.998;7.794;2023-04-06T14:33:28;8.68;;;3.17;;
53907;SDS011;40469;47.998;7.794;2023-04-06T14:35:55;7.90;;;3.22;;
53907;SDS011;40469;47.998;7.794;2023-04-06T14:38:21;7.18;;;3.22;;
53907;SDS011;40469;47.998;7.794;2023-04-06T14:40:46;6.15;;;2.65;;
53907;SDS011;40469;47.998;7.794;2023-04-06T14:43:11;6.75;;;3.33;;
53907;SDS011;40469;47.998;7.794;2023-04-06T14:45:37;6.78;;;3.10;;
53907;SDS011;40469;47.998;7.794;2023-04-06T14:48:04;5.28;;;3.10;;
53907;SDS011;40469;47.998;7.794;2023-04-06T14:50:31;6.95;;;2.95;;
53907;SDS011;40469;47.998;7.794;2023-04-06T14:52:57;6.25;;;2.85;;